X Fechar
foto

X Fechar
foto
Clique e saiba mais
Clique e saiba mais
Clique e saiba mais
Clique e saiba mais
Clique e saiba mais
Clique e saiba mais

Edgers Racing

KTM Sacramento

Toro Sports

SP Race Park

JPS Racing

MotoX Pneus

Arenafama

Clique e saiba mais

> Notícias > Últimas Notícias

Mundial de Motocross 2019 - Resultados e Vídeos das Classificatórias na China
Publicado em: 14/09/2019

Glenn Coldenhoff e Jorge Prado vencem as classificatórias
Redação MotoX.com.br: Lucidio Arruda - Fotos: Youthstream


Glenn Coldenhoff

Glenn Coldenhoff confirmou a grande fase com a segunda vitória consecutiva em classificatórias. O holandês aproveitou-se da queda de Tim Gajser e suportou os ataques de Arminas Jasikonis. Foi uma corrida bastante equilibrada, com os cinco primeiros cruzando a bandeirada num intervalo de 3 segundos.


Jorge Prado

Na classe MX2 Jorger Prado, sempre ele, liderou de ponta a ponta, com o companheiro de equipe Tom Vialle em segundo e Calvin Vlaanderen em terceiro.

Confira abaixo o vídeo com o resumos das classificatórias.

Vídeo





Resultados

P. # MXGP Nat. Moto Tempo V Dif. Gap. M.V. Speed
1 259 Coldenhoff, Glenn NED KTM 24:42.040 13 0:00.000 0:00.000 1:44.610 55.7
2 27 Jasikonis, Arminas LTU Hus 24:43.468 13 0:01.428 0:01.428 1:44.710 55.6
3 91 Seewer, Jeremy SUI Yam 24:44.382 13 0:02.342 0:00.914 1:44.738 55.6
4 41 Jonass, Pauls LAT Hus 24:45.324 13 0:03.284 0:00.942 1:44.448 55.8
5 84 Herlings, Jeffrey NED KTM 24:45.468 13 0:03.428 0:00.144 1:44.086 56
6 128 Monticelli, Ivo ITA KTM 25:06.968 13 0:24.928 0:21.500 1:45.833 55.1
7 89 Van Horebeek, Jeremy BEL Hon 25:08.947 13 0:26.907 0:01.979 1:46.370 54.8
8 21 Paulin, Gautier FRA Yam 25:14.266 13 0:32.226 0:05.319 1:46.655 54.6
9 22 Strijbos, Kevin BEL Yam 25:17.660 13 0:35.620 0:03.394 1:47.005 54.5
10 911 Tixier, Jordi FRA KTM 25:27.057 13 0:45.017 0:09.397 1:47.126 54.4
11 243 Gajser, Tim SLO Hon 25:32.004 13 0:49.964 0:04.947 1:46.175 54.9
12 189 Bogers, Brian NED Hon 25:37.311 13 0:55.271 0:05.307 1:46.976 54.5
13 152 Petrov, Petar BUL KTM 25:47.458 13 1:05.418 0:10.147 1:47.354 54.3
14 83 Renkens, Nathan BEL KTM 26:28.844 13 1:46.804 0:41.386 1:50.791 52.6
15 311 Romphan, Chaiyan THA Yam 24:57.439 11 2 laps 2 laps 2:00.482 48.4
16 618 Xu, Jianhao CHN Yam 26:45.184 11 2 laps 1:47.745 2:06.594 46
17 244 Nakpane, Madjade TOG Yam 26:51.570 11 2 laps 0:06.386 2:11.521 44.3
18 531 Galligari, Francesco ITA Hus 25:51.999 10 3 laps 1 lap 2:12.599 43.9
19 727 Deng, Liansong CHN KTM 26:35.487 10 3 laps 0:43.488 2:11.437 44.3
20 59 Peng, Tianwei CHN KTM 25:50.781 8 5 laps 2 laps 2:33.229 38
21 4 Tonus, Arnaud SUI Yam 4:10.413 1 12 laps 7 laps 2:20.946 41.3

P. # MX2 Nat. Moto Tempo V Dif. Gap. M.V. Speed
1 61 Prado, Jorge ESP KTM 25:02.251 13 0:00.000 0:00.000 1:45.944 55
2 28 Vialle, Tom FRA KTM 25:19.744 13 0:17.493 0:17.493 1:45.778 55.1
3 10 Vlaanderen, Calvin NED Hon 25:31.819 13 0:29.568 0:12.075 1:46.628 54.6
4 959 Renaux, Maxime FRA Yam 25:46.770 13 0:44.519 0:14.951 1:49.428 53.2
5 43 Evans, Mitchell AUS Hon 25:48.128 13 0:45.877 0:01.358 1:49.299 53.3
6 225 Strubhart Moreau, Brian FRA Kaw 25:49.651 13 0:47.400 0:01.523 1:48.517 53.7
7 811 Sterry, Adam GBR Kaw 25:55.167 13 0:52.916 0:05.516 1:49.163 53.4
8 193 Geerts, Jago BEL Yam 25:56.731 13 0:54.480 0:01.564 1:48.148 53.9
9 19 Olsen, Thomas Kjer DEN Hus 26:00.033 13 0:57.782 0:03.302 1:47.772 54.1
10 39 Van De Moosdijk, Roan NED Kaw 26:02.766 13 1:00.515 0:02.733 1:48.542 53.7
11 102 Sikyna, Richard SVK KTM 26:05.182 13 1:02.931 0:02.416 1:48.579 53.7
12 66 Larranaga Olano, Iker ESP KTM 26:08.081 13 1:05.830 0:02.899 1:49.325 53.3
13 121 Guadagnini, Mattia ITA Hus 26:16.841 13 1:14.590 0:08.760 1:49.451 53.2
14 303 Forato, Alberto ITA Hus 26:21.371 13 1:19.120 0:04.530 1:50.182 52.9
15 101 Pichon, Zachary FRA Hon 26:52.819 13 1:50.568 0:31.448 1:50.062 52.9
16 423 Papenmeier, Larissa GER Yam 26:42.457 12 1 lap 1 lap 1:59.015 49
17 519 Wang, Ke CHN Yam 25:10.797 10 3 laps 2 laps 2:07.464 45.7
18 181 Pu, Yang CHN Yam 25:49.125 10 3 laps 0:38.328 2:08.661 45.3
19 909 Hu, Bolin CHN Hon 26:50.073 10 3 laps 1:00.948 2:16.439 42.7
20 42 Peng, Yongming CHN Hon 26:50.772 10 3 laps 0:00.699 2:15.468 43
21 35 Harrison, Mitchell USA Kaw 18:27.609 9 4 laps 1 lap 1:49.452 53.2
22 535 Cheng, Hao CHN Hon 6:46.000 2 11 laps 7 laps 2:15.734 42.9







© 2000 - 2018 MotoX MX1 Internet